sensor_id;sensor_type;location;lat;lon;timestamp;temperature;humidity
52495;DHT22;38405;53.212;5.660;2024-02-26T00:01:37;3.30;99.90
52495;DHT22;38405;53.212;5.660;2024-02-26T00:04:03;3.40;99.90
52495;DHT22;38405;53.212;5.660;2024-02-26T00:06:32;3.50;99.90
52495;DHT22;38405;53.212;5.660;2024-02-26T00:08:58;3.50;99.90
52495;DHT22;38405;53.212;5.660;2024-02-26T00:11:23;3.60;99.90
52495;DHT22;38405;53.212;5.660;2024-02-26T00:13:49;3.30;99.90
52495;DHT22;38405;53.212;5.660;2024-02-26T00:16:15;3.30;99.90
52495;DHT22;38405;53.212;5.660;2024-02-26T00:18:40;3.40;99.90
52495;DHT22;38405;53.212;5.660;2024-02-26T00:21:06;3.50;99.90
52495;DHT22;38405;53.212;5.660;2024-02-26T00:23:32;3.40;99.90
52495;DHT22;38405;53.212;5.660;2024-02-26T00:25:57;3.40;99.90
52495;DHT22;38405;53.212;5.660;2024-02-26T00:28:24;3.30;99.90
52495;DHT22;38405;53.212;5.660;2024-02-26T00:30:50;3.40;99.90
52495;DHT22;38405;53.212;5.660;2024-02-26T00:33:21;3.30;99.90
52495;DHT22;38405;53.212;5.660;2024-02-26T00:35:46;3.30;99.90
52495;DHT22;38405;53.212;5.660;2024-02-26T00:38:12;3.40;99.90
52495;DHT22;38405;53.212;5.660;2024-02-26T00:40:38;3.50;99.90
52495;DHT22;38405;53.212;5.660;2024-02-26T00:43:03;3.40;99.90
52495;DHT22;38405;53.212;5.660;2024-02-26T00:45:29;3.50;99.90
52495;DHT22;38405;53.212;5.660;2024-02-26T00:47:55;3.40;99.90
52495;DHT22;38405;53.212;5.660;2024-02-26T00:50:21;3.50;99.90
52495;DHT22;38405;53.212;5.660;2024-02-26T00:52:46;3.50;99.90
52495;DHT22;38405;53.212;5.660;2024-02-26T00:55:12;3.60;99.90
52495;DHT22;38405;53.212;5.660;2024-02-26T00:57:38;3.50;99.90
52495;DHT22;38405;53.212;5.660;2024-02-26T01:00:04;3.70;99.90
52495;DHT22;38405;53.212;5.660;2024-02-26T01:02:30;3.60;99.90
52495;DHT22;38405;53.212;5.660;2024-02-26T01:04:55;3.50;99.90
52495;DHT22;38405;53.212;5.660;2024-02-26T01:07:21;3.70;99.90
52495;DHT22;38405;53.212;5.660;2024-02-26T01:09:47;3.70;99.90
52495;DHT22;38405;53.212;5.660;2024-02-26T01:12:12;3.80;99.90
52495;DHT22;38405;53.212;5.660;2024-02-26T01:14:38;4.10;99.90
52495;DHT22;38405;53.212;5.660;2024-02-26T01:17:04;3.60;99.90
52495;DHT22;38405;53.212;5.660;2024-02-26T01:19:29;3.90;99.90
52495;DHT22;38405;53.212;5.660;2024-02-26T01:21:55;3.80;99.90
52495;DHT22;38405;53.212;5.660;2024-02-26T01:24:20;3.60;99.90
52495;DHT22;38405;53.212;5.660;2024-02-26T01:26:46;3.60;99.90
52495;DHT22;38405;53.212;5.660;2024-02-26T01:29:12;4.00;99.90
52495;DHT22;38405;53.212;5.660;2024-02-26T01:31:37;3.60;99.90
52495;DHT22;38405;53.212;5.660;2024-02-26T01:34:03;3.50;99.90
52495;DHT22;38405;53.212;5.660;2024-02-26T01:36:28;3.50;99.90
52495;DHT22;38405;53.212;5.660;2024-02-26T01:38:54;3.80;99.90
52495;DHT22;38405;53.212;5.660;2024-02-26T01:41:20;3.50;99.90
52495;DHT22;38405;53.212;5.660;2024-02-26T01:43:45;3.60;99.90
52495;DHT22;38405;53.212;5.660;2024-02-26T01:46:13;4.20;99.90
52495;DHT22;38405;53.212;5.660;2024-02-26T01:48:42;3.40;99.90
52495;DHT22;38405;53.212;5.660;2024-02-26T01:51:09;3.40;99.90
52495;DHT22;38405;53.212;5.660;2024-02-26T01:53:35;3.60;99.90
52495;DHT22;38405;53.212;5.660;2024-02-26T01:56:01;3.50;99.90
52495;DHT22;38405;53.212;5.660;2024-02-26T01:58:27;3.40;99.90
52495;DHT22;38405;53.212;5.660;2024-02-26T02:00:53;3.40;99.90
52495;DHT22;38405;53.212;5.660;2024-02-26T02:03:19;3.30;99.90
52495;DHT22;38405;53.212;5.660;2024-02-26T02:05:44;3.60;99.90
52495;DHT22;38405;53.212;5.660;2024-02-26T02:08:15;3.30;99.90
52495;DHT22;38405;53.212;5.660;2024-02-26T02:10:45;3.40;99.90
52495;DHT22;38405;53.212;5.660;2024-02-26T02:13:13;3.40;99.90
52495;DHT22;38405;53.212;5.660;2024-02-26T02:15:39;3.40;99.90
52495;DHT22;38405;53.212;5.660;2024-02-26T02:18:05;3.80;99.90
52495;DHT22;38405;53.212;5.660;2024-02-26T02:20:35;3.40;99.90
52495;DHT22;38405;53.212;5.660;2024-02-26T02:23:01;3.30;99.90
52495;DHT22;38405;53.212;5.660;2024-02-26T02:25:27;3.40;99.90
52495;DHT22;38405;53.212;5.660;2024-02-26T02:27:54;3.30;99.90
52495;DHT22;38405;53.212;5.660;2024-02-26T02:30:31;3.20;99.90
52495;DHT22;38405;53.212;5.660;2024-02-26T02:32:58;3.40;99.90
52495;DHT22;38405;53.212;5.660;2024-02-26T02:35:24;3.20;99.90
52495;DHT22;38405;53.212;5.660;2024-02-26T02:37:52;3.40;99.90
52495;DHT22;38405;53.212;5.660;2024-02-26T02:40:18;3.30;99.90
52495;DHT22;38405;53.212;5.660;2024-02-26T02:42:43;3.20;99.90
52495;DHT22;38405;53.212;5.660;2024-02-26T02:45:09;3.20;99.90
52495;DHT22;38405;53.212;5.660;2024-02-26T02:47:38;3.20;99.90
52495;DHT22;38405;53.212;5.660;2024-02-26T02:50:04;3.30;99.90
52495;DHT22;38405;53.212;5.660;2024-02-26T02:52:30;3.30;99.90
52495;DHT22;38405;53.212;5.660;2024-02-26T02:54:56;3.20;99.90
52495;DHT22;38405;53.212;5.660;2024-02-26T02:57:22;3.20;99.90
52495;DHT22;38405;53.212;5.660;2024-02-26T02:59:47;3.10;99.90
52495;DHT22;38405;53.212;5.660;2024-02-26T03:02:13;3.30;99.90
52495;DHT22;38405;53.212;5.660;2024-02-26T03:04:39;3.20;99.90
52495;DHT22;38405;53.212;5.660;2024-02-26T03:07:04;3.10;99.90
52495;DHT22;38405;53.212;5.660;2024-02-26T03:09:30;3.20;99.90
52495;DHT22;38405;53.212;5.660;2024-02-26T03:11:56;3.30;99.90
52495;DHT22;38405;53.212;5.660;2024-02-26T03:14:21;3.30;99.90
52495;DHT22;38405;53.212;5.660;2024-02-26T03:16:47;3.10;99.90
52495;DHT22;38405;53.212;5.660;2024-02-26T03:19:16;3.20;99.90
52495;DHT22;38405;53.212;5.660;2024-02-26T03:21:41;3.40;99.90
52495;DHT22;38405;53.212;5.660;2024-02-26T03:24:07;3.40;99.90
52495;DHT22;38405;53.212;5.660;2024-02-26T03:26:36;3.70;99.90
52495;DHT22;38405;53.212;5.660;2024-02-26T03:29:01;3.30;99.90
52495;DHT22;38405;53.212;5.660;2024-02-26T03:31:28;3.40;99.90
52495;DHT22;38405;53.212;5.660;2024-02-26T03:33:54;3.50;99.90
52495;DHT22;38405;53.212;5.660;2024-02-26T03:36:19;3.80;99.90
52495;DHT22;38405;53.212;5.660;2024-02-26T03:38:47;3.60;99.90
52495;DHT22;38405;53.212;5.660;2024-02-26T03:41:13;3.50;99.90
52495;DHT22;38405;53.212;5.660;2024-02-26T03:43:38;3.50;99.90
52495;DHT22;38405;53.212;5.660;2024-02-26T03:46:07;3.40;99.90
52495;DHT22;38405;53.212;5.660;2024-02-26T03:48:33;3.60;99.90
52495;DHT22;38405;53.212;5.660;2024-02-26T03:51:00;3.50;99.90
52495;DHT22;38405;53.212;5.660;2024-02-26T03:53:26;3.50;99.90
52495;DHT22;38405;53.212;5.660;2024-02-26T03:55:51;3.60;99.90
52495;DHT22;38405;53.212;5.660;2024-02-26T03:58:18;3.50;99.90
52495;DHT22;38405;53.212;5.660;2024-02-26T04:00:44;3.70;99.90
52495;DHT22;38405;53.212;5.660;2024-02-26T04:03:10;3.50;99.90
52495;DHT22;38405;53.212;5.660;2024-02-26T04:05:35;3.50;99.90
52495;DHT22;38405;53.212;5.660;2024-02-26T04:08:01;4.00;99.90
52495;DHT22;38405;53.212;5.660;2024-02-26T04:10:29;3.70;99.90
52495;DHT22;38405;53.212;5.660;2024-02-26T04:12:54;3.80;99.90
52495;DHT22;38405;53.212;5.660;2024-02-26T04:15:20;3.70;99.90
52495;DHT22;38405;53.212;5.660;2024-02-26T04:17:46;3.80;99.90
52495;DHT22;38405;53.212;5.660;2024-02-26T04:20:15;4.00;99.90
52495;DHT22;38405;53.212;5.660;2024-02-26T04:22:42;3.90;99.90
52495;DHT22;38405;53.212;5.660;2024-02-26T04:25:08;4.10;99.90
52495;DHT22;38405;53.212;5.660;2024-02-26T04:27:34;4.40;99.90
52495;DHT22;38405;53.212;5.660;2024-02-26T04:29:59;4.10;99.90
52495;DHT22;38405;53.212;5.660;2024-02-26T04:32:25;4.00;99.90
52495;DHT22;38405;53.212;5.660;2024-02-26T04:34:51;4.00;99.90
52495;DHT22;38405;53.212;5.660;2024-02-26T04:37:16;4.00;99.90
52495;DHT22;38405;53.212;5.660;2024-02-26T04:39:43;4.10;99.90
52495;DHT22;38405;53.212;5.660;2024-02-26T04:42:08;4.20;99.90
52495;DHT22;38405;53.212;5.660;2024-02-26T04:44:34;4.10;99.90
52495;DHT22;38405;53.212;5.660;2024-02-26T04:47:00;4.10;99.90
52495;DHT22;38405;53.212;5.660;2024-02-26T04:49:27;4.10;99.90
52495;DHT22;38405;53.212;5.660;2024-02-26T04:51:52;4.40;99.90
52495;DHT22;38405;53.212;5.660;2024-02-26T04:54:19;4.00;99.90
52495;DHT22;38405;53.212;5.660;2024-02-26T04:56:45;3.90;99.90
52495;DHT22;38405;53.212;5.660;2024-02-26T04:59:10;4.00;99.90
52495;DHT22;38405;53.212;5.660;2024-02-26T05:01:36;4.10;99.90
52495;DHT22;38405;53.212;5.660;2024-02-26T05:04:02;4.00;99.90
52495;DHT22;38405;53.212;5.660;2024-02-26T05:06:29;4.00;99.90
52495;DHT22;38405;53.212;5.660;2024-02-26T05:08:54;4.10;99.90
52495;DHT22;38405;53.212;5.660;2024-02-26T05:11:20;4.00;99.90
52495;DHT22;38405;53.212;5.660;2024-02-26T05:13:47;4.10;99.90
52495;DHT22;38405;53.212;5.660;2024-02-26T05:16:12;4.60;99.90
52495;DHT22;38405;53.212;5.660;2024-02-26T05:18:38;4.20;99.90
52495;DHT22;38405;53.212;5.660;2024-02-26T05:21:04;4.20;99.90
52495;DHT22;38405;53.212;5.660;2024-02-26T05:23:29;4.50;99.90
52495;DHT22;38405;53.212;5.660;2024-02-26T05:25:55;4.20;99.90
52495;DHT22;38405;53.212;5.660;2024-02-26T05:28:21;4.10;99.90
52495;DHT22;38405;53.212;5.660;2024-02-26T05:30:47;4.20;99.90
52495;DHT22;38405;53.212;5.660;2024-02-26T05:33:12;4.10;99.90
52495;DHT22;38405;53.212;5.660;2024-02-26T05:35:38;4.20;99.90
52495;DHT22;38405;53.212;5.660;2024-02-26T05:38:04;4.20;99.90
52495;DHT22;38405;53.212;5.660;2024-02-26T05:40:29;4.20;99.90
52495;DHT22;38405;53.212;5.660;2024-02-26T05:42:55;4.20;99.90
52495;DHT22;38405;53.212;5.660;2024-02-26T05:45:21;4.10;99.90
52495;DHT22;38405;53.212;5.660;2024-02-26T05:47:47;4.30;99.90
52495;DHT22;38405;53.212;5.660;2024-02-26T05:50:13;4.20;99.90
52495;DHT22;38405;53.212;5.660;2024-02-26T05:52:40;4.20;99.90
52495;DHT22;38405;53.212;5.660;2024-02-26T05:55:07;4.10;99.90
52495;DHT22;38405;53.212;5.660;2024-02-26T05:57:34;4.10;99.90
52495;DHT22;38405;53.212;5.660;2024-02-26T05:59:59;4.00;99.90
52495;DHT22;38405;53.212;5.660;2024-02-26T06:02:30;4.10;99.90
52495;DHT22;38405;53.212;5.660;2024-02-26T06:04:55;4.10;99.90
52495;DHT22;38405;53.212;5.660;2024-02-26T06:07:21;4.00;99.90
52495;DHT22;38405;53.212;5.660;2024-02-26T06:09:46;4.00;99.90
52495;DHT22;38405;53.212;5.660;2024-02-26T06:12:14;4.20;99.90
52495;DHT22;38405;53.212;5.660;2024-02-26T06:14:39;4.00;99.90
52495;DHT22;38405;53.212;5.660;2024-02-26T06:17:05;4.10;99.90
52495;DHT22;38405;53.212;5.660;2024-02-26T06:19:32;4.20;99.90
52495;DHT22;38405;53.212;5.660;2024-02-26T06:21:58;4.10;99.90
52495;DHT22;38405;53.212;5.660;2024-02-26T06:24:23;4.30;99.90
52495;DHT22;38405;53.212;5.660;2024-02-26T06:26:49;4.30;99.90
52495;DHT22;38405;53.212;5.660;2024-02-26T06:29:15;4.40;99.90
52495;DHT22;38405;53.212;5.660;2024-02-26T06:31:40;4.30;99.90
52495;DHT22;38405;53.212;5.660;2024-02-26T06:34:06;4.30;99.90
52495;DHT22;38405;53.212;5.660;2024-02-26T06:36:32;4.30;99.90
52495;DHT22;38405;53.212;5.660;2024-02-26T06:38:58;4.30;99.90
52495;DHT22;38405;53.212;5.660;2024-02-26T06:41:24;4.90;99.90
52495;DHT22;38405;53.212;5.660;2024-02-26T06:43:55;4.30;99.90
52495;DHT22;38405;53.212;5.660;2024-02-26T06:46:21;4.30;99.90
52495;DHT22;38405;53.212;5.660;2024-02-26T06:48:48;4.40;99.90
52495;DHT22;38405;53.212;5.660;2024-02-26T06:51:14;4.30;99.90
52495;DHT22;38405;53.212;5.660;2024-02-26T06:53:39;4.30;99.90
52495;DHT22;38405;53.212;5.660;2024-02-26T06:56:05;4.30;99.90
52495;DHT22;38405;53.212;5.660;2024-02-26T06:58:31;4.30;99.90
52495;DHT22;38405;53.212;5.660;2024-02-26T07:00:57;4.30;99.90
52495;DHT22;38405;53.212;5.660;2024-02-26T07:03:22;4.30;99.90
52495;DHT22;38405;53.212;5.660;2024-02-26T07:05:48;4.30;99.90
52495;DHT22;38405;53.212;5.660;2024-02-26T07:08:14;4.20;99.90
52495;DHT22;38405;53.212;5.660;2024-02-26T07:10:40;4.30;99.90
52495;DHT22;38405;53.212;5.660;2024-02-26T07:13:05;4.10;99.90
52495;DHT22;38405;53.212;5.660;2024-02-26T07:15:31;4.20;99.90
52495;DHT22;38405;53.212;5.660;2024-02-26T07:17:57;4.20;99.90
52495;DHT22;38405;53.212;5.660;2024-02-26T07:20:28;4.20;99.90
52495;DHT22;38405;53.212;5.660;2024-02-26T07:22:54;4.30;99.90
52495;DHT22;38405;53.212;5.660;2024-02-26T07:25:20;4.20;99.90
52495;DHT22;38405;53.212;5.660;2024-02-26T07:27:46;4.20;99.90
52495;DHT22;38405;53.212;5.660;2024-02-26T07:30:12;4.20;99.90
52495;DHT22;38405;53.212;5.660;2024-02-26T07:32:38;4.20;99.90
52495;DHT22;38405;53.212;5.660;2024-02-26T07:35:04;4.20;99.90
52495;DHT22;38405;53.212;5.660;2024-02-26T07:37:30;4.30;99.90
52495;DHT22;38405;53.212;5.660;2024-02-26T07:39:56;4.30;99.90
52495;DHT22;38405;53.212;5.660;2024-02-26T07:42:21;4.20;99.90
52495;DHT22;38405;53.212;5.660;2024-02-26T07:44:47;4.20;99.90
52495;DHT22;38405;53.212;5.660;2024-02-26T07:47:13;4.40;99.90
52495;DHT22;38405;53.212;5.660;2024-02-26T07:49:39;4.30;99.90
52495;DHT22;38405;53.212;5.660;2024-02-26T07:52:05;4.30;99.90
52495;DHT22;38405;53.212;5.660;2024-02-26T07:54:31;4.30;99.90
52495;DHT22;38405;53.212;5.660;2024-02-26T07:56:56;4.40;99.90
52495;DHT22;38405;53.212;5.660;2024-02-26T07:59:22;5.10;99.90
52495;DHT22;38405;53.212;5.660;2024-02-26T08:01:51;4.40;99.90
52495;DHT22;38405;53.212;5.660;2024-02-26T08:04:17;4.40;99.90
52495;DHT22;38405;53.212;5.660;2024-02-26T08:06:42;4.50;99.90
52495;DHT22;38405;53.212;5.660;2024-02-26T08:09:08;4.50;99.90
52495;DHT22;38405;53.212;5.660;2024-02-26T08:11:34;4.50;99.90
52495;DHT22;38405;53.212;5.660;2024-02-26T08:14:00;4.50;99.90
52495;DHT22;38405;53.212;5.660;2024-02-26T08:16:26;4.60;99.90
52495;DHT22;38405;53.212;5.660;2024-02-26T08:18:52;4.60;99.90
52495;DHT22;38405;53.212;5.660;2024-02-26T08:21:18;4.60;99.90
52495;DHT22;38405;53.212;5.660;2024-02-26T08:23:44;5.20;99.90
52495;DHT22;38405;53.212;5.660;2024-02-26T08:26:09;4.80;99.90
52495;DHT22;38405;53.212;5.660;2024-02-26T08:28:40;4.80;99.90
52495;DHT22;38405;53.212;5.660;2024-02-26T08:31:05;4.80;99.90
52495;DHT22;38405;53.212;5.660;2024-02-26T08:33:31;4.90;99.90
52495;DHT22;38405;53.212;5.660;2024-02-26T08:35:57;4.90;99.90
52495;DHT22;38405;53.212;5.660;2024-02-26T08:38:23;5.00;99.90
52495;DHT22;38405;53.212;5.660;2024-02-26T08:40:49;5.10;99.90
52495;DHT22;38405;53.212;5.660;2024-02-26T08:43:15;5.10;99.90
52495;DHT22;38405;53.212;5.660;2024-02-26T08:45:40;5.10;99.90
52495;DHT22;38405;53.212;5.660;2024-02-26T08:48:06;5.50;99.90
52495;DHT22;38405;53.212;5.660;2024-02-26T08:50:33;5.20;99.90
52495;DHT22;38405;53.212;5.660;2024-02-26T08:52:58;5.20;99.90
52495;DHT22;38405;53.212;5.660;2024-02-26T08:55:26;5.30;99.90
52495;DHT22;38405;53.212;5.660;2024-02-26T08:57:52;5.30;99.90
52495;DHT22;38405;53.212;5.660;2024-02-26T09:00:18;5.30;99.90
52495;DHT22;38405;53.212;5.660;2024-02-26T09:02:49;5.40;99.90
52495;DHT22;38405;53.212;5.660;2024-02-26T09:05:15;5.40;99.90
52495;DHT22;38405;53.212;5.660;2024-02-26T09:07:40;5.40;99.90
52495;DHT22;38405;53.212;5.660;2024-02-26T09:10:06;5.50;99.90
52495;DHT22;38405;53.212;5.660;2024-02-26T09:12:34;5.50;99.90
52495;DHT22;38405;53.212;5.660;2024-02-26T09:15:00;5.50;99.90
52495;DHT22;38405;53.212;5.660;2024-02-26T09:17:25;5.50;99.90
52495;DHT22;38405;53.212;5.660;2024-02-26T09:19:51;5.60;99.90
52495;DHT22;38405;53.212;5.660;2024-02-26T09:22:17;5.60;99.90
52495;DHT22;38405;53.212;5.660;2024-02-26T09:24:42;5.60;99.90
52495;DHT22;38405;53.212;5.660;2024-02-26T09:27:08;5.70;99.90
52495;DHT22;38405;53.212;5.660;2024-02-26T09:29:35;5.70;99.90
52495;DHT22;38405;53.212;5.660;2024-02-26T09:32:01;5.80;99.90
52495;DHT22;38405;53.212;5.660;2024-02-26T09:34:27;5.80;99.90
52495;DHT22;38405;53.212;5.660;2024-02-26T09:36:52;5.80;99.90
52495;DHT22;38405;53.212;5.660;2024-02-26T09:39:18;5.90;99.90
52495;DHT22;38405;53.212;5.660;2024-02-26T09:41:47;6.00;99.90
52495;DHT22;38405;53.212;5.660;2024-02-26T09:44:19;6.00;99.90
52495;DHT22;38405;53.212;5.660;2024-02-26T09:46:48;6.00;99.90
52495;DHT22;38405;53.212;5.660;2024-02-26T09:49:19;6.10;99.90
52495;DHT22;38405;53.212;5.660;2024-02-26T09:51:45;6.10;99.90
52495;DHT22;38405;53.212;5.660;2024-02-26T09:54:13;6.50;99.90
52495;DHT22;38405;53.212;5.660;2024-02-26T09:56:40;6.20;99.90
52495;DHT22;38405;53.212;5.660;2024-02-26T09:59:10;6.20;99.90
52495;DHT22;38405;53.212;5.660;2024-02-26T10:01:40;6.20;99.90
52495;DHT22;38405;53.212;5.660;2024-02-26T10:04:10;6.30;99.90
52495;DHT22;38405;53.212;5.660;2024-02-26T10:06:37;6.30;99.90
52495;DHT22;38405;53.212;5.660;2024-02-26T10:09:03;6.50;99.90
52495;DHT22;38405;53.212;5.660;2024-02-26T10:11:32;6.40;99.90
52495;DHT22;38405;53.212;5.660;2024-02-26T10:13:58;6.40;99.90
52495;DHT22;38405;53.212;5.660;2024-02-26T10:16:25;6.40;99.90
52495;DHT22;38405;53.212;5.660;2024-02-26T10:18:52;6.40;99.90
52495;DHT22;38405;53.212;5.660;2024-02-26T10:21:22;6.40;99.90
52495;DHT22;38405;53.212;5.660;2024-02-26T10:23:49;6.40;99.90
52495;DHT22;38405;53.212;5.660;2024-02-26T10:26:16;6.40;99.90
52495;DHT22;38405;53.212;5.660;2024-02-26T10:28:42;6.30;99.90
52495;DHT22;38405;53.212;5.660;2024-02-26T10:31:09;6.30;99.90
52495;DHT22;38405;53.212;5.660;2024-02-26T10:33:38;6.30;99.90
52495;DHT22;38405;53.212;5.660;2024-02-26T10:36:05;6.20;99.90
52495;DHT22;38405;53.212;5.660;2024-02-26T10:38:32;6.20;99.90
52495;DHT22;38405;53.212;5.660;2024-02-26T10:40:58;6.20;99.90
52495;DHT22;38405;53.212;5.660;2024-02-26T10:43:25;6.20;99.90
52495;DHT22;38405;53.212;5.660;2024-02-26T10:45:50;6.30;99.90
52495;DHT22;38405;53.212;5.660;2024-02-26T10:48:17;6.40;99.90
52495;DHT22;38405;53.212;5.660;2024-02-26T10:50:43;6.40;99.90
52495;DHT22;38405;53.212;5.660;2024-02-26T10:53:20;6.50;99.90
52495;DHT22;38405;53.212;5.660;2024-02-26T10:55:55;6.50;99.90
52495;DHT22;38405;53.212;5.660;2024-02-26T10:58:22;6.50;99.90
52495;DHT22;38405;53.212;5.660;2024-02-26T11:00:50;6.50;99.90
52495;DHT22;38405;53.212;5.660;2024-02-26T11:03:17;6.60;99.90
52495;DHT22;38405;53.212;5.660;2024-02-26T11:05:49;6.60;99.90
52495;DHT22;38405;53.212;5.660;2024-02-26T11:08:18;6.60;99.90
52495;DHT22;38405;53.212;5.660;2024-02-26T11:10:47;6.60;99.90
52495;DHT22;38405;53.212;5.660;2024-02-26T11:13:14;6.70;99.90
52495;DHT22;38405;53.212;5.660;2024-02-26T11:15:40;6.70;99.90
52495;DHT22;38405;53.212;5.660;2024-02-26T11:18:07;6.70;99.90
52495;DHT22;38405;53.212;5.660;2024-02-26T11:20:34;6.80;99.90
52495;DHT22;38405;53.212;5.660;2024-02-26T11:23:03;6.80;99.90
52495;DHT22;38405;53.212;5.660;2024-02-26T11:25:29;6.80;99.90
52495;DHT22;38405;53.212;5.660;2024-02-26T11:27:58;6.90;99.90
52495;DHT22;38405;53.212;5.660;2024-02-26T11:30:30;6.90;99.90
52495;DHT22;38405;53.212;5.660;2024-02-26T11:32:56;7.10;99.90
52495;DHT22;38405;53.212;5.660;2024-02-26T11:35:23;6.80;99.90
52495;DHT22;38405;53.212;5.660;2024-02-26T11:37:56;6.80;99.90
52495;DHT22;38405;53.212;5.660;2024-02-26T11:40:24;6.80;99.90
52495;DHT22;38405;53.212;5.660;2024-02-26T11:42:51;7.10;99.90
52495;DHT22;38405;53.212;5.660;2024-02-26T11:48:12;6.90;99.90
52495;DHT22;38405;53.212;5.660;2024-02-26T11:50:43;6.90;99.90
52495;DHT22;38405;53.212;5.660;2024-02-26T11:58:43;6.90;99.90
52495;DHT22;38405;53.212;5.660;2024-02-26T12:01:37;6.90;99.90
52495;DHT22;38405;53.212;5.660;2024-02-26T12:06:58;7.00;99.90
52495;DHT22;38405;53.212;5.660;2024-02-26T12:12:10;7.10;99.90
52495;DHT22;38405;53.212;5.660;2024-02-26T12:14:39;7.00;99.90
52495;DHT22;38405;53.212;5.660;2024-02-26T12:17:07;6.90;99.90
52495;DHT22;38405;53.212;5.660;2024-02-26T12:19:35;6.90;99.90
52495;DHT22;38405;53.212;5.660;2024-02-26T12:22:02;6.90;99.90
52495;DHT22;38405;53.212;5.660;2024-02-26T12:24:29;6.80;99.90
52495;DHT22;38405;53.212;5.660;2024-02-26T12:26:54;6.90;99.90
52495;DHT22;38405;53.212;5.660;2024-02-26T12:29:20;7.00;99.90
52495;DHT22;38405;53.212;5.660;2024-02-26T12:31:47;7.00;99.90
52495;DHT22;38405;53.212;5.660;2024-02-26T12:34:13;7.00;99.90
52495;DHT22;38405;53.212;5.660;2024-02-26T12:36:39;6.90;99.90
52495;DHT22;38405;53.212;5.660;2024-02-26T12:39:06;6.80;99.90
52495;DHT22;38405;53.212;5.660;2024-02-26T12:41:33;6.80;99.90
52495;DHT22;38405;53.212;5.660;2024-02-26T12:43:59;6.80;99.90
52495;DHT22;38405;53.212;5.660;2024-02-26T12:46:25;6.80;99.90
52495;DHT22;38405;53.212;5.660;2024-02-26T12:48:50;6.70;99.90
52495;DHT22;38405;53.212;5.660;2024-02-26T12:51:17;6.70;99.90
52495;DHT22;38405;53.212;5.660;2024-02-26T12:53:44;6.70;99.90
52495;DHT22;38405;53.212;5.660;2024-02-26T12:56:11;6.80;99.90
52495;DHT22;38405;53.212;5.660;2024-02-26T12:58:39;6.70;99.90
52495;DHT22;38405;53.212;5.660;2024-02-26T13:01:06;6.60;99.90
52495;DHT22;38405;53.212;5.660;2024-02-26T13:03:34;6.60;99.90
52495;DHT22;38405;53.212;5.660;2024-02-26T13:06:01;6.60;99.90
52495;DHT22;38405;53.212;5.660;2024-02-26T13:08:27;6.50;99.90
52495;DHT22;38405;53.212;5.660;2024-02-26T13:10:53;6.50;99.90
52495;DHT22;38405;53.212;5.660;2024-02-26T13:13:19;6.60;99.90
52495;DHT22;38405;53.212;5.660;2024-02-26T13:15:45;6.40;99.90
52495;DHT22;38405;53.212;5.660;2024-02-26T13:18:12;6.50;99.90
52495;DHT22;38405;53.212;5.660;2024-02-26T13:20:38;6.40;99.90
52495;DHT22;38405;53.212;5.660;2024-02-26T13:23:11;6.30;99.90
52495;DHT22;38405;53.212;5.660;2024-02-26T13:25:38;6.30;99.90
52495;DHT22;38405;53.212;5.660;2024-02-26T13:28:15;6.50;99.90
52495;DHT22;38405;53.212;5.660;2024-02-26T13:30:41;6.20;99.90
52495;DHT22;38405;53.212;5.660;2024-02-26T13:33:11;6.20;99.90
52495;DHT22;38405;53.212;5.660;2024-02-26T13:35:38;6.10;99.90
52495;DHT22;38405;53.212;5.660;2024-02-26T13:38:05;6.10;99.90
52495;DHT22;38405;53.212;5.660;2024-02-26T13:40:31;6.50;99.90
52495;DHT22;38405;53.212;5.660;2024-02-26T13:42:57;6.00;99.90
52495;DHT22;38405;53.212;5.660;2024-02-26T13:45:23;6.40;99.90
52495;DHT22;38405;53.212;5.660;2024-02-26T13:47:48;6.00;99.90
52495;DHT22;38405;53.212;5.660;2024-02-26T13:50:14;6.00;99.90
52495;DHT22;38405;53.212;5.660;2024-02-26T13:52:40;6.60;99.90
52495;DHT22;38405;53.212;5.660;2024-02-26T13:55:06;5.90;99.90
52495;DHT22;38405;53.212;5.660;2024-02-26T13:57:33;6.00;99.90
52495;DHT22;38405;53.212;5.660;2024-02-26T13:59:58;5.90;99.90
52495;DHT22;38405;53.212;5.660;2024-02-26T14:02:24;5.90;99.90
52495;DHT22;38405;53.212;5.660;2024-02-26T14:04:49;6.00;99.90
52495;DHT22;38405;53.212;5.660;2024-02-26T14:07:15;5.90;99.90
52495;DHT22;38405;53.212;5.660;2024-02-26T14:09:42;6.40;99.90
52495;DHT22;38405;53.212;5.660;2024-02-26T14:12:09;6.00;99.90
52495;DHT22;38405;53.212;5.660;2024-02-26T14:14:37;6.00;99.90
52495;DHT22;38405;53.212;5.660;2024-02-26T14:17:04;5.80;99.90
52495;DHT22;38405;53.212;5.660;2024-02-26T14:19:31;6.00;99.90
52495;DHT22;38405;53.212;5.660;2024-02-26T14:21:56;6.00;99.90
52495;DHT22;38405;53.212;5.660;2024-02-26T14:24:22;6.00;99.90
52495;DHT22;38405;53.212;5.660;2024-02-26T14:26:48;6.10;99.90
52495;DHT22;38405;53.212;5.660;2024-02-26T14:29:13;6.20;99.90
52495;DHT22;38405;53.212;5.660;2024-02-26T14:31:39;6.10;99.90
52495;DHT22;38405;53.212;5.660;2024-02-26T14:34:05;6.10;99.90
52495;DHT22;38405;53.212;5.660;2024-02-26T14:36:31;6.10;99.90
52495;DHT22;38405;53.212;5.660;2024-02-26T14:38:56;6.20;99.90
52495;DHT22;38405;53.212;5.660;2024-02-26T14:41:22;6.20;99.90
52495;DHT22;38405;53.212;5.660;2024-02-26T14:43:48;6.20;99.90
52495;DHT22;38405;53.212;5.660;2024-02-26T14:46:13;6.10;99.90
52495;DHT22;38405;53.212;5.660;2024-02-26T14:48:39;6.20;99.90
52495;DHT22;38405;53.212;5.660;2024-02-26T14:51:04;6.20;99.90
52495;DHT22;38405;53.212;5.660;2024-02-26T14:53:32;6.10;99.90
52495;DHT22;38405;53.212;5.660;2024-02-26T14:55:57;6.20;99.90
52495;DHT22;38405;53.212;5.660;2024-02-26T14:58:23;6.20;99.90
52495;DHT22;38405;53.212;5.660;2024-02-26T15:00:49;6.20;99.90
52495;DHT22;38405;53.212;5.660;2024-02-26T15:03:15;7.00;99.90
52495;DHT22;38405;53.212;5.660;2024-02-26T15:05:40;6.60;99.90
52495;DHT22;38405;53.212;5.660;2024-02-26T15:08:06;6.20;99.90
52495;DHT22;38405;53.212;5.660;2024-02-26T15:10:34;6.20;99.90
52495;DHT22;38405;53.212;5.660;2024-02-26T15:13:00;6.20;99.90
52495;DHT22;38405;53.212;5.660;2024-02-26T15:15:25;6.30;99.90
52495;DHT22;38405;53.212;5.660;2024-02-26T15:17:52;6.10;99.90
52495;DHT22;38405;53.212;5.660;2024-02-26T15:20:18;6.10;99.90
52495;DHT22;38405;53.212;5.660;2024-02-26T15:22:43;6.10;99.90
52495;DHT22;38405;53.212;5.660;2024-02-26T15:25:09;6.70;99.90
52495;DHT22;38405;53.212;5.660;2024-02-26T15:27:35;6.20;99.90
52495;DHT22;38405;53.212;5.660;2024-02-26T15:30:04;6.10;99.90
52495;DHT22;38405;53.212;5.660;2024-02-26T15:32:29;6.10;99.90
52495;DHT22;38405;53.212;5.660;2024-02-26T15:34:55;6.10;99.90
52495;DHT22;38405;53.212;5.660;2024-02-26T15:37:21;6.10;99.90
52495;DHT22;38405;53.212;5.660;2024-02-26T15:39:47;6.10;99.90
52495;DHT22;38405;53.212;5.660;2024-02-26T15:42:13;6.10;99.90
52495;DHT22;38405;53.212;5.660;2024-02-26T15:44:42;6.10;99.90
52495;DHT22;38405;53.212;5.660;2024-02-26T15:47:08;6.10;99.90
52495;DHT22;38405;53.212;5.660;2024-02-26T15:49:34;6.10;99.90
52495;DHT22;38405;53.212;5.660;2024-02-26T15:52:00;6.00;99.90
52495;DHT22;38405;53.212;5.660;2024-02-26T15:54:26;6.10;99.90